createdAt,value
2023-02-23T00:04:38.103Z,14.10
2023-02-23T00:07:06.513Z,13.80
2023-02-23T00:09:38.025Z,14.10
2023-02-23T00:14:38.926Z,12.60
2023-02-23T00:17:14.685Z,13.50
2023-02-23T00:19:43.900Z,14.90
2023-02-23T00:22:12.804Z,15.20
2023-02-23T00:24:42.909Z,15.70
2023-02-23T00:27:17.549Z,14.70
2023-02-23T00:29:49.377Z,11.60
2023-02-23T00:32:21.754Z,13.50
2023-02-23T00:34:52.417Z,12.80
2023-02-23T00:37:22.902Z,12.40
2023-02-23T00:39:52.010Z,10.30
2023-02-23T00:42:20.590Z,9.70
2023-02-23T00:44:49.343Z,9.70
2023-02-23T00:47:17.241Z,10.00
2023-02-23T00:49:45.225Z,7.00
2023-02-23T00:52:14.810Z,8.40
2023-02-23T00:54:42.847Z,7.60
2023-02-23T00:57:10.850Z,8.50
2023-02-23T00:59:38.714Z,7.70
2023-02-23T01:02:06.736Z,8.80
2023-02-23T01:04:34.752Z,7.40
2023-02-23T01:07:06.389Z,8.10
2023-02-23T01:09:34.811Z,16.10
2023-02-23T01:12:07.690Z,7.80
2023-02-23T01:14:38.131Z,6.00
2023-02-23T01:17:07.551Z,7.20
2023-02-23T01:19:38.048Z,6.60
2023-02-23T01:22:05.875Z,8.70
2023-02-23T01:24:33.827Z,8.80
2023-02-23T01:27:05.486Z,7.90
2023-02-23T01:29:34.943Z,10.40
2023-02-23T01:32:04.685Z,9.70
2023-02-23T01:34:32.853Z,10.60
2023-02-23T01:37:00.787Z,10.00
2023-02-23T01:39:29.380Z,11.70
2023-02-23T01:41:57.226Z,8.90
2023-02-23T01:44:25.041Z,8.60
2023-02-23T01:46:53.375Z,8.30
2023-02-23T01:49:29.803Z,9.80
2023-02-23T01:52:18.083Z,8.00
2023-02-23T01:54:55.592Z,11.10
2023-02-23T01:57:25.250Z,8.50
2023-02-23T01:59:55.945Z,9.20
2023-02-23T02:02:33.520Z,8.30
2023-02-23T02:05:08.092Z,10.40
2023-02-23T02:07:39.566Z,6.30
2023-02-23T02:10:12.538Z,11.00
2023-02-23T02:12:44.276Z,9.10
2023-02-23T02:15:20.081Z,7.90
2023-02-23T02:18:09.244Z,11.50
2023-02-23T02:21:04.682Z,8.20
2023-02-23T02:23:42.177Z,6.60
2023-02-23T02:26:46.351Z,8.60
2023-02-23T02:30:03.399Z,8.60
2023-02-23T02:33:03.836Z,7.90
2023-02-23T02:36:02.303Z,8.90
2023-02-23T02:38:56.072Z,9.40
2023-02-23T02:41:53.356Z,8.60
2023-02-23T02:45:03.055Z,8.10
2023-02-23T02:47:42.517Z,7.80
2023-02-23T02:50:22.473Z,10.00
2023-02-23T02:53:07.186Z,9.00
2023-02-23T02:55:41.407Z,6.70
2023-02-23T02:58:12.803Z,7.50
2023-02-23T03:01:08.994Z,8.40
2023-02-23T03:03:57.106Z,8.00
2023-02-23T03:06:57.492Z,10.00
2023-02-23T03:09:55.091Z,9.50
2023-02-23T03:13:17.105Z,7.80
2023-02-23T03:16:22.712Z,9.90
2023-02-23T03:19:46.379Z,9.40
2023-02-23T03:23:05.665Z,14.70
2023-02-23T03:26:10.114Z,9.30
2023-02-23T03:29:40.478Z,8.70
2023-02-23T03:32:44.309Z,9.00
2023-02-23T03:35:42.818Z,13.10
2023-02-23T03:38:40.349Z,12.70
2023-02-23T03:41:31.491Z,13.80
2023-02-23T03:44:26.108Z,12.00
2023-02-23T03:47:16.260Z,12.20
2023-02-23T03:50:05.863Z,11.60
2023-02-23T03:53:10.453Z,11.70
2023-02-23T03:56:02.510Z,11.80
2023-02-23T03:59:14.475Z,10.60
2023-02-23T04:04:50.020Z,11.90
2023-02-23T04:07:39.080Z,13.30
2023-02-23T04:10:28.663Z,9.60
2023-02-23T04:13:16.196Z,7.50
2023-02-23T04:16:00.260Z,11.30
2023-02-23T04:18:33.033Z,7.40
2023-02-23T04:21:02.393Z,9.40
2023-02-23T04:23:31.241Z,8.10
2023-02-23T04:25:59.332Z,7.90
2023-02-23T04:28:29.351Z,6.20
2023-02-23T04:30:57.330Z,11.00
2023-02-23T04:33:25.496Z,5.60
2023-02-23T04:35:54.354Z,11.60
2023-02-23T04:38:23.641Z,6.90
2023-02-23T04:40:51.790Z,7.10
2023-02-23T04:43:20.154Z,5.50
2023-02-23T04:45:48.009Z,5.60
2023-02-23T04:48:15.883Z,6.50
2023-02-23T04:50:43.789Z,5.10
2023-02-23T04:53:12.016Z,5.20
2023-02-23T04:55:39.804Z,7.00
2023-02-23T04:58:13.737Z,4.80
2023-02-23T05:00:42.158Z,4.40
2023-02-23T05:03:10.776Z,4.70
2023-02-23T05:05:39.667Z,6.70
2023-02-23T05:08:07.611Z,4.90
2023-02-23T05:10:35.705Z,4.70
2023-02-23T05:13:03.551Z,8.00
2023-02-23T05:15:31.532Z,6.00
2023-02-23T05:17:59.440Z,4.70
2023-02-23T05:20:27.809Z,7.40
2023-02-23T05:22:55.853Z,5.80
2023-02-23T05:25:23.633Z,6.60
2023-02-23T05:27:52.030Z,5.30
2023-02-23T05:30:19.962Z,6.00
2023-02-23T05:32:47.742Z,4.60
2023-02-23T05:35:15.912Z,4.70
2023-02-23T05:37:44.716Z,6.60
2023-02-23T05:40:13.620Z,5.70
2023-02-23T05:42:41.463Z,4.40
2023-02-23T05:45:09.444Z,6.40
2023-02-23T05:47:38.850Z,7.40
2023-02-23T05:50:11.459Z,4.50
2023-02-23T05:52:41.966Z,6.80
2023-02-23T05:55:11.844Z,6.40
2023-02-23T05:57:41.162Z,6.00
2023-02-23T06:00:13.513Z,4.20
2023-02-23T06:02:42.138Z,4.70
2023-02-23T06:05:12.860Z,3.10
2023-02-23T06:07:40.715Z,5.10
2023-02-23T06:10:09.671Z,4.60
2023-02-23T06:12:37.447Z,4.40
2023-02-23T06:15:06.683Z,4.00
2023-02-23T06:17:35.683Z,4.60
2023-02-23T06:20:07.125Z,4.00
2023-02-23T06:25:08.817Z,3.50
2023-02-23T06:27:36.894Z,2.60
2023-02-23T06:30:05.898Z,4.60
2023-02-23T06:32:33.978Z,4.10
2023-02-23T06:35:07.788Z,4.00
2023-02-23T06:37:36.405Z,4.40
2023-02-23T06:40:06.876Z,5.90
2023-02-23T06:42:36.087Z,4.40
2023-02-23T06:45:05.924Z,3.10
2023-02-23T06:47:33.735Z,5.00
2023-02-23T06:50:03.253Z,3.80
2023-02-23T06:52:31.244Z,6.60
2023-02-23T06:54:59.373Z,7.40
2023-02-23T06:57:27.478Z,5.00
2023-02-23T06:59:55.421Z,4.00
2023-02-23T07:02:23.662Z,4.60
2023-02-23T07:04:51.638Z,5.00
2023-02-23T07:07:19.532Z,4.90
2023-02-23T07:09:47.260Z,7.10
2023-02-23T07:12:15.096Z,7.10
2023-02-23T07:14:42.934Z,7.30
2023-02-23T07:17:12.574Z,6.70
2023-02-23T07:19:40.750Z,5.70
2023-02-23T07:22:08.579Z,3.40
2023-02-23T07:24:38.218Z,3.40
2023-02-23T07:27:06.068Z,6.80
2023-02-23T07:29:33.989Z,3.90
2023-02-23T07:32:02.188Z,4.90
2023-02-23T07:34:30.065Z,3.70
2023-02-23T07:36:57.864Z,3.80
2023-02-23T07:39:25.833Z,5.70
2023-02-23T07:41:53.607Z,6.50
2023-02-23T07:44:21.503Z,4.60
2023-02-23T07:46:50.350Z,4.60
2023-02-23T07:49:18.256Z,4.30
2023-02-23T07:51:46.432Z,1.30
2023-02-23T07:54:15.137Z,6.90
2023-02-23T07:56:43.774Z,3.70
2023-02-23T07:59:11.628Z,2.70
2023-02-23T08:01:39.639Z,2.50
2023-02-23T08:04:07.529Z,3.70
2023-02-23T08:06:35.790Z,5.50
2023-02-23T08:09:04.936Z,4.30
2023-02-23T08:11:33.003Z,3.50
2023-02-23T08:14:01.252Z,3.20
2023-02-23T08:16:32.948Z,4.20
2023-02-23T08:19:02.240Z,3.70
2023-02-23T08:21:30.671Z,7.80
2023-02-23T08:23:58.964Z,2.50
2023-02-23T08:26:26.944Z,4.80
2023-02-23T08:28:55.336Z,4.10
2023-02-23T08:31:24.916Z,7.00
2023-02-23T08:33:53.738Z,3.20
2023-02-23T08:36:22.267Z,3.90
2023-02-23T08:38:50.397Z,6.00
2023-02-23T08:41:18.455Z,3.40
2023-02-23T08:43:48.765Z,5.30
2023-02-23T08:46:18.726Z,4.40
2023-02-23T08:48:47.229Z,6.60
2023-02-23T08:51:15.452Z,4.20
2023-02-23T08:53:43.557Z,4.00
2023-02-23T08:56:13.315Z,8.20
2023-02-23T08:58:42.250Z,6.60
2023-02-23T09:01:21.959Z,6.00
2023-02-23T09:03:50.614Z,4.40
2023-02-23T09:06:22.076Z,4.20
2023-02-23T09:11:18.500Z,6.60
2023-02-23T09:13:46.911Z,5.00
2023-02-23T09:16:15.045Z,7.40
2023-02-23T09:18:43.286Z,3.80
2023-02-23T09:21:21.006Z,4.60
2023-02-23T09:23:51.412Z,5.00
2023-02-23T09:26:20.625Z,7.10
2023-02-23T09:28:49.125Z,7.00
2023-02-23T09:31:23.090Z,6.50
2023-02-23T09:33:51.999Z,8.50
2023-02-23T09:36:24.403Z,7.60
2023-02-23T09:38:57.229Z,6.60
2023-02-23T09:41:54.961Z,3.90
2023-02-23T09:44:52.994Z,3.20
2023-02-23T09:47:45.656Z,5.10
2023-02-23T09:50:23.637Z,3.90
2023-02-23T09:53:01.916Z,3.80
2023-02-23T09:55:31.811Z,11.00
2023-02-23T09:58:24.073Z,4.80
2023-02-23T10:01:16.360Z,2.90
2023-02-23T10:04:02.122Z,3.30
2023-02-23T10:06:30.853Z,6.10
2023-02-23T10:09:06.406Z,4.40
2023-02-23T10:12:03.977Z,4.20
2023-02-23T10:14:52.965Z,4.30
2023-02-23T10:18:03.513Z,2.00
2023-02-23T10:20:58.708Z,6.10
2023-02-23T10:23:39.007Z,3.00
2023-02-23T10:26:15.596Z,5.30
2023-02-23T10:28:44.953Z,4.50
2023-02-23T10:31:46.557Z,3.00
2023-02-23T10:34:18.017Z,5.20
2023-02-23T10:36:59.035Z,6.10
2023-02-23T10:39:28.851Z,5.20
2023-02-23T10:42:02.252Z,8.20
2023-02-23T10:44:30.419Z,4.00
2023-02-23T10:47:22.490Z,5.40
2023-02-23T10:49:56.738Z,4.10
2023-02-23T10:52:41.672Z,4.80
2023-02-23T10:55:29.095Z,5.20
2023-02-23T10:58:03.323Z,4.10
2023-02-23T11:00:37.009Z,6.20
2023-02-23T11:03:24.408Z,7.00
2023-02-23T11:05:53.728Z,6.20
2023-02-23T11:08:33.637Z,8.30
2023-02-23T11:11:25.493Z,4.70
2023-02-23T11:13:53.371Z,3.70
2023-02-23T11:16:29.570Z,4.50
2023-02-23T11:19:04.085Z,6.60
2023-02-23T11:21:38.895Z,6.40
2023-02-23T11:24:30.850Z,7.20
2023-02-23T11:29:39.850Z,8.20
2023-02-23T11:32:15.716Z,7.70
2023-02-23T11:34:44.170Z,7.40
2023-02-23T11:37:21.422Z,6.70
2023-02-23T11:39:58.968Z,10.70
2023-02-23T11:42:33.383Z,8.50
2023-02-23T11:45:17.348Z,10.50
2023-02-23T11:47:50.021Z,7.10
2023-02-23T11:50:32.542Z,12.30
2023-02-23T11:53:06.636Z,9.70
2023-02-23T11:55:38.121Z,7.40
2023-02-23T12:01:17.210Z,11.60
2023-02-23T12:03:51.811Z,7.00
2023-02-23T12:06:42.028Z,9.40
2023-02-23T12:09:32.935Z,10.90
2023-02-23T12:12:09.803Z,8.70
2023-02-23T12:14:42.418Z,10.40
2023-02-23T12:17:44.120Z,11.90
2023-02-23T12:20:21.418Z,5.80
2023-02-23T12:22:57.757Z,8.20
2023-02-23T12:25:47.873Z,5.60
2023-02-23T12:28:34.386Z,6.30
2023-02-23T12:31:31.252Z,6.60
2023-02-23T12:35:04.663Z,8.80
2023-02-23T12:37:43.253Z,8.80
2023-02-23T12:40:22.339Z,11.40
2023-02-23T12:43:08.754Z,7.70
2023-02-23T12:45:52.818Z,10.40
2023-02-23T12:48:52.320Z,14.00
2023-02-23T12:51:45.677Z,8.90
2023-02-23T12:54:17.185Z,12.70
2023-02-23T12:59:55.528Z,11.00
2023-02-23T13:02:49.876Z,3.60
2023-02-23T13:05:39.657Z,8.80
2023-02-23T13:08:45.915Z,4.00
2023-02-23T13:11:23.187Z,7.60
2023-02-23T13:14:24.026Z,5.70
2023-02-23T13:17:35.999Z,7.60
2023-02-23T13:25:40.591Z,5.80
2023-02-23T13:28:20.946Z,7.90
2023-02-23T13:30:49.006Z,11.40
2023-02-23T13:33:41.985Z,7.50
2023-02-23T13:36:13.012Z,9.70
2023-02-23T13:39:18.625Z,10.30
2023-02-23T13:42:14.657Z,15.80
2023-02-23T13:45:01.459Z,6.70
2023-02-23T13:48:00.217Z,10.80
2023-02-23T13:50:39.552Z,7.90
2023-02-23T13:53:36.949Z,13.20
2023-02-23T13:56:29.749Z,15.10
2023-02-23T13:59:08.380Z,10.00
2023-02-23T14:01:39.626Z,13.70
2023-02-23T14:04:23.430Z,8.00
2023-02-23T14:07:16.807Z,13.90
2023-02-23T14:10:21.758Z,8.30
2023-02-23T14:13:17.448Z,10.70
2023-02-23T14:15:49.962Z,12.00
2023-02-23T14:18:17.768Z,12.50
2023-02-23T14:21:13.652Z,10.30
2023-02-23T14:23:47.831Z,8.80
2023-02-23T14:26:40.122Z,9.40
2023-02-23T14:29:22.388Z,12.30
2023-02-23T14:32:16.245Z,11.90
2023-02-23T14:34:58.511Z,9.60
2023-02-23T14:37:42.669Z,8.60
2023-02-23T14:40:31.981Z,10.90
2023-02-23T14:43:04.139Z,7.20
2023-02-23T14:45:38.903Z,16.70
2023-02-23T14:48:13.512Z,13.20
2023-02-23T14:50:42.251Z,13.60
2023-02-23T14:53:24.060Z,11.60
2023-02-23T14:55:51.959Z,15.20
2023-02-23T14:58:35.556Z,14.20
2023-02-23T15:01:03.485Z,11.30
2023-02-23T15:03:31.321Z,9.80
2023-02-23T15:06:01.461Z,10.60
2023-02-23T15:08:31.903Z,10.80
2023-02-23T15:11:12.665Z,10.20
2023-02-23T15:13:47.922Z,9.90
2023-02-23T15:16:32.042Z,12.70
2023-02-23T15:19:03.115Z,12.10
2023-02-23T15:21:31.597Z,11.10
2023-02-23T15:24:10.992Z,8.90
2023-02-23T15:26:41.530Z,14.20
2023-02-23T15:29:19.484Z,15.10
2023-02-23T15:31:55.233Z,10.20
2023-02-23T15:34:30.629Z,10.60
2023-02-23T15:37:04.617Z,14.00
2023-02-23T15:39:48.615Z,14.80
2023-02-23T15:42:24.334Z,14.40
2023-02-23T15:45:00.383Z,13.20
2023-02-23T15:47:34.969Z,11.90
2023-02-23T15:50:21.976Z,10.50
2023-02-23T15:53:03.238Z,16.10
2023-02-23T15:55:37.414Z,7.80
2023-02-23T15:58:44.555Z,10.80
2023-02-23T16:01:29.441Z,12.00
2023-02-23T16:04:16.321Z,8.80
2023-02-23T16:07:07.780Z,9.20
2023-02-23T16:09:39.102Z,8.80
2023-02-23T16:12:22.783Z,11.50
2023-02-23T16:14:57.140Z,13.70
2023-02-23T16:17:28.889Z,12.30
2023-02-23T16:20:10.969Z,11.30
2023-02-23T16:22:40.042Z,7.70
2023-02-23T16:25:14.922Z,10.60
2023-02-23T16:27:45.627Z,9.00
2023-02-23T16:30:32.877Z,10.50
2023-02-23T16:33:24.936Z,10.20
2023-02-23T16:36:13.228Z,9.00
2023-02-23T16:38:52.906Z,9.50
2023-02-23T16:41:22.704Z,10.50
2023-02-23T16:43:54.368Z,9.70
2023-02-23T16:46:27.336Z,7.50
2023-02-23T16:48:55.374Z,9.20
2023-02-23T16:51:23.901Z,9.30
2023-02-23T16:53:53.339Z,12.00
2023-02-23T16:56:22.511Z,8.40
2023-02-23T16:59:00.454Z,5.00
2023-02-23T17:01:28.736Z,5.50
2023-02-23T17:03:58.980Z,9.40
2023-02-23T17:06:26.891Z,9.20
2023-02-23T17:08:58.504Z,7.00
2023-02-23T17:11:26.955Z,9.20
2023-02-23T17:13:54.880Z,6.70
2023-02-23T17:16:23.422Z,12.10
2023-02-23T17:18:51.767Z,5.70
2023-02-23T17:21:23.867Z,7.70
2023-02-23T17:23:53.201Z,7.70
2023-02-23T17:26:25.634Z,10.30
2023-02-23T17:28:54.036Z,10.40
2023-02-23T17:31:24.733Z,7.00
2023-02-23T17:36:23.905Z,12.40
2023-02-23T17:38:58.805Z,8.70
2023-02-23T17:41:27.393Z,9.10
2023-02-23T17:43:55.310Z,6.40
2023-02-23T17:46:24.198Z,13.00
2023-02-23T17:48:53.346Z,10.20
2023-02-23T17:51:23.411Z,11.40
2023-02-23T17:53:51.488Z,7.00
2023-02-23T17:56:20.279Z,8.20
2023-02-23T17:58:48.507Z,12.10
2023-02-23T18:01:17.938Z,15.50
2023-02-23T18:03:47.786Z,9.00
2023-02-23T18:06:16.876Z,10.40
2023-02-23T18:08:45.453Z,9.60
2023-02-23T18:11:13.819Z,8.00
2023-02-23T18:13:41.700Z,8.90
2023-02-23T18:16:11.427Z,13.70
2023-02-23T18:18:43.707Z,7.70
2023-02-23T18:21:18.941Z,8.10
2023-02-23T18:23:48.597Z,13.30
2023-02-23T18:26:23.895Z,14.60
2023-02-23T18:28:54.038Z,11.70
2023-02-23T18:31:28.067Z,12.50
2023-02-23T18:33:59.478Z,12.00
2023-02-23T18:36:39.308Z,12.70
2023-02-23T18:39:10.734Z,12.30
2023-02-23T18:41:39.188Z,14.20
2023-02-23T18:44:12.482Z,9.70
2023-02-23T18:46:42.681Z,10.60
2023-02-23T18:49:23.135Z,12.50
2023-02-23T18:51:51.442Z,13.00
2023-02-23T18:54:19.671Z,10.40
2023-02-23T18:56:48.763Z,12.60
2023-02-23T18:59:16.956Z,8.60
2023-02-23T19:01:47.885Z,12.90
2023-02-23T19:04:15.796Z,7.90
2023-02-23T19:06:47.155Z,11.50
2023-02-23T19:09:21.366Z,11.70
2023-02-23T19:11:50.616Z,11.90
2023-02-23T19:14:20.921Z,11.00
2023-02-23T19:16:51.794Z,12.00
2023-02-23T19:19:19.838Z,11.10
2023-02-23T19:21:47.799Z,7.80
2023-02-23T19:24:16.281Z,10.80
2023-02-23T19:26:44.456Z,15.60
2023-02-23T19:29:12.363Z,10.50
2023-02-23T19:31:40.340Z,10.30
2023-02-23T19:34:09.933Z,11.90
2023-02-23T19:36:37.749Z,12.60
2023-02-23T19:39:10.728Z,12.90
2023-02-23T19:41:40.180Z,9.50
2023-02-23T19:44:09.326Z,10.00
2023-02-23T19:46:39.880Z,12.50
2023-02-23T19:49:08.089Z,11.50
2023-02-23T19:51:36.447Z,9.20
2023-02-23T19:54:06.299Z,16.80
2023-02-23T19:56:34.630Z,16.50
2023-02-23T19:59:03.928Z,16.70
2023-02-23T20:01:33.528Z,18.60
2023-02-23T20:04:06.640Z,20.20
2023-02-23T20:06:44.702Z,17.00
2023-02-23T20:09:14.606Z,18.70
2023-02-23T20:11:42.815Z,17.10
2023-02-23T20:14:12.404Z,20.30
2023-02-23T20:16:40.754Z,19.80
2023-02-23T20:19:08.688Z,17.70
2023-02-23T20:21:36.923Z,22.10
2023-02-23T20:24:05.631Z,21.50
2023-02-23T20:26:37.013Z,21.70
2023-02-23T20:29:10.751Z,26.40
2023-02-23T20:31:42.808Z,19.40
2023-02-23T20:34:12.090Z,20.50
2023-02-23T20:36:40.186Z,25.30
2023-02-23T20:39:10.337Z,21.70
2023-02-23T20:41:44.073Z,20.20
2023-02-23T20:44:14.699Z,23.50
2023-02-23T20:46:44.674Z,24.40
2023-02-23T20:49:13.836Z,24.10
2023-02-23T20:51:44.912Z,20.40
2023-02-23T20:54:14.506Z,23.30
2023-02-23T20:56:43.854Z,18.80
2023-02-23T20:59:13.073Z,20.20
2023-02-23T21:01:43.709Z,19.50
2023-02-23T21:04:13.175Z,21.30
2023-02-23T21:06:41.239Z,18.20
2023-02-23T21:09:17.841Z,19.40
2023-02-23T21:11:48.078Z,19.10
2023-02-23T21:14:17.421Z,18.10
2023-02-23T21:16:46.369Z,20.90
2023-02-23T21:19:20.324Z,20.70
2023-02-23T21:21:51.577Z,22.70
2023-02-23T21:24:20.590Z,22.50
2023-02-23T21:26:48.544Z,24.40
2023-02-23T21:29:18.071Z,29.10
2023-02-23T21:31:47.139Z,20.50
2023-02-23T21:34:21.056Z,21.80
2023-02-23T21:36:51.855Z,25.30
2023-02-23T21:39:21.612Z,24.70
2023-02-23T21:41:49.610Z,31.50
2023-02-23T21:44:17.407Z,29.90
2023-02-23T21:46:45.375Z,32.80
2023-02-23T21:49:13.430Z,32.80
2023-02-23T21:51:41.507Z,32.50
2023-02-23T21:54:09.470Z,31.10
2023-02-23T21:56:37.538Z,31.20
2023-02-23T21:59:10.867Z,23.00
2023-02-23T22:01:41.804Z,27.30
2023-02-23T22:04:15.313Z,24.10
2023-02-23T22:06:44.446Z,29.00
2023-02-23T22:09:15.450Z,25.30
2023-02-23T22:11:47.385Z,23.10
2023-02-23T22:14:17.106Z,18.30
2023-02-23T22:16:46.076Z,27.20
2023-02-23T22:19:14.000Z,22.70
2023-02-23T22:21:44.257Z,19.30
2023-02-23T22:24:14.773Z,20.70
2023-02-23T22:26:55.110Z,19.30
2023-02-23T22:29:25.791Z,20.50
2023-02-23T22:31:53.831Z,17.00
2023-02-23T22:34:22.552Z,17.10
2023-02-23T22:36:51.001Z,17.50
2023-02-23T22:39:19.210Z,20.10
2023-02-23T22:41:48.367Z,21.20
2023-02-23T22:44:21.257Z,18.30
2023-02-23T22:46:49.668Z,22.70
2023-02-23T22:49:19.955Z,20.20
2023-02-23T22:51:48.357Z,18.70
2023-02-23T22:54:17.351Z,12.90
2023-02-23T22:56:46.870Z,19.40
2023-02-23T22:59:17.510Z,18.40
2023-02-23T23:01:47.460Z,19.70
2023-02-23T23:04:15.417Z,17.00
2023-02-23T23:06:43.761Z,12.10
2023-02-23T23:09:13.186Z,12.40
2023-02-23T23:11:44.523Z,17.70
2023-02-23T23:14:13.435Z,17.70
2023-02-23T23:16:51.519Z,15.90
2023-02-23T23:19:26.079Z,15.80
2023-02-23T23:21:55.875Z,18.30
2023-02-23T23:24:25.362Z,17.90
2023-02-23T23:26:55.536Z,12.90
2023-02-23T23:29:25.731Z,15.30
2023-02-23T23:31:55.294Z,16.80
2023-02-23T23:34:23.434Z,11.10
2023-02-23T23:36:53.081Z,16.50
2023-02-23T23:39:25.235Z,14.10
2023-02-23T23:41:54.069Z,17.40
2023-02-23T23:44:28.923Z,14.90
2023-02-23T23:46:58.023Z,16.80
2023-02-23T23:49:26.058Z,15.30
2023-02-23T23:51:56.502Z,13.30
2023-02-23T23:54:38.773Z,21.10
2023-02-23T23:57:08.008Z,16.20
2023-02-23T23:59:41.539Z,17.50
